Time;durP1;ratioP1;P1;durP2;ratioP2;P2;SDS_P1;SDS_P2;PMS_P1;PMS_P2;Temp;Humidity;BMP_temperature;BMP_pressure;BME280_temperature;BME280_humidity;BME280_pressure;Samples;Min_cycle;Max_cycle;Signal;HPM_P1;HPM_P2
2020/12/29 00:01:56;;;;;;;9.80;8.73;;;;;;;6.66;62.20;98113.13;6331362;28;20213;-72
2020/12/29 00:05:17;;;;;;;11.60;8.70;;;;;;;6.65;62.45;98108.84;6338329;27;20319;-72
2020/12/29 00:08:37;;;;;;;10.27;9.23;;;;;;;6.55;62.61;98104.91;6352443;27;20237;-72
2020/12/29 00:11:58;;;;;;;8.97;8.00;;;;;;;6.60;61.92;98103.03;6308581;28;20302;-72
2020/12/29 00:15:19;;;;;;;9.70;8.70;;;;;;;6.47;62.51;98100.84;6355498;27;20226;-72
2020/12/29 00:18:39;;;;;;;9.20;8.40;;;;;;;6.46;62.19;98099.19;6338635;28;20233;-72
2020/12/29 00:22:01;;;;;;;9.47;8.47;;;;;;;6.43;62.17;98093.28;6338516;28;20269;-73
2020/12/29 00:25:21;;;;;;;9.10;8.20;;;;;;;6.31;61.97;98094.56;6342072;27;20222;-73
2020/12/29 00:28:42;;;;;;;8.57;7.70;;;;;;;6.36;61.83;98099.56;6359668;27;20277;-73
2020/12/29 00:32:03;;;;;;;7.60;6.90;;;;;;;6.13;62.36;98096.03;6352162;27;20229;-73
2020/12/29 00:35:23;;;;;;;7.20;6.60;;;;;;;6.12;62.07;98089.19;6354648;27;20333;-72
2020/12/29 00:38:45;;;;;;;8.53;7.60;;;;;;;6.16;61.94;98095.09;6364655;27;20233;-72
2020/12/29 00:42:06;;;;;;;8.47;7.67;;;;;;;6.26;61.42;98088.69;6355955;27;20715;-72
2020/12/29 00:45:26;;;;;;;8.43;7.63;;;;;;;6.25;61.19;98080.09;6341777;27;20221;-73
2020/12/29 00:48:49;;;;;;;8.90;8.00;;;;;;;6.33;61.19;98079.84;6339913;27;20523;-73
2020/12/29 00:52:09;;;;;;;8.60;7.77;;;;;;;6.38;60.92;98074.50;6358253;27;20256;-72
2020/12/29 00:55:44;;;;;;;8.73;7.83;;;;;;;6.56;60.17;98075.59;6325095;28;20261;-72
2020/12/29 00:59:04;;;;;;;8.77;7.83;;;;;;;6.32;60.19;98070.41;6336904;27;20238;-72
2020/12/29 01:02:28;;;;;;;9.03;8.23;;;;;;;6.31;60.11;98074.72;6326215;28;20374;-72
2020/12/29 01:06:11;;;;;;;7.90;7.10;;;;;;;6.08;60.97;98072.94;6320064;28;20254;-72
2020/12/29 01:09:32;;;;;;;6.83;6.23;;;;;;;6.10;60.83;98071.13;6338116;28;20562;-73
2020/12/29 01:12:54;;;;;;;10.10;9.03;;;;;;;6.31;60.09;98066.97;6328834;27;20630;-73
2020/12/29 01:16:15;;;;;;;9.53;8.30;;;;;;;6.31;60.00;98066.13;6330094;28;20230;-73
2020/12/29 01:19:38;;;;;;;8.97;8.13;;;;;;;6.23;59.98;98065.56;6361701;27;20311;-72
2020/12/29 01:22:58;;;;;;;8.77;7.93;;;;;;;6.16;60.23;98077.00;6358370;27;20254;-72
2020/12/29 01:26:23;;;;;;;10.00;9.07;;;;;;;5.92;61.08;98074.34;6342575;27;20225;-72
2020/12/29 01:29:44;;;;;;;8.63;7.83;;;;;;;5.90;60.77;98065.78;6340147;27;20849;-72
2020/12/29 01:33:05;;;;;;;10.07;9.17;;;;;;;5.90;60.79;98078.72;6336157;27;20230;-72
2020/12/29 01:36:26;;;;;;;9.13;8.23;;;;;;;6.03;60.89;98080.03;6302482;27;20328;-72
2020/12/29 01:39:47;;;;;;;9.07;8.27;;;;;;;6.14;60.21;98076.22;6338630;27;20312;-72
2020/12/29 01:43:08;;;;;;;9.23;8.33;;;;;;;6.12;60.25;98073.66;6341752;27;20222;-73
2020/12/29 01:46:29;;;;;;;9.67;8.53;;;;;;;6.00;60.86;98072.34;6358401;27;20328;-72
2020/12/29 01:49:49;;;;;;;9.20;8.37;;;;;;;6.09;60.56;98066.88;6364440;27;20224;-73
2020/12/29 01:53:12;;;;;;;8.97;8.10;;;;;;;6.15;60.19;98062.41;6360765;27;20241;-72
2020/12/29 01:56:36;;;;;;;8.83;7.93;;;;;;;6.09;60.41;98069.47;6350354;27;20229;-71
2020/12/29 01:59:57;;;;;;;8.93;8.03;;;;;;;6.07;60.48;98067.84;6362707;27;20244;-72
2020/12/29 02:03:18;;;;;;;7.60;7.00;;;;;;;6.17;60.28;98060.59;6349342;27;20957;-71
2020/12/29 02:06:40;;;;;;;9.13;8.20;;;;;;;6.14;60.45;98058.97;6361547;27;20699;-72
2020/12/29 02:10:00;;;;;;;7.93;7.23;;;;;;;6.09;60.32;98061.72;6358052;27;20232;-71
2020/12/29 02:13:21;;;;;;;8.33;7.60;;;;;;;6.04;60.59;98062.75;6360920;27;20233;-71
2020/12/29 02:16:43;;;;;;;8.23;7.53;;;;;;;6.00;60.85;98064.59;6352977;27;20217;-72
2020/12/29 02:20:06;;;;;;;8.17;7.40;;;;;;;5.95;61.04;98055.28;6358064;27;20298;-72
2020/12/29 02:23:27;;;;;;;8.17;7.40;;;;;;;6.04;60.30;98050.69;6359607;27;20217;-72
2020/12/29 02:26:48;;;;;;;7.20;6.60;;;;;;;6.10;60.25;98052.22;6346262;27;20260;-71
2020/12/29 02:30:08;;;;;;;8.17;7.43;;;;;;;6.18;60.41;98049.38;6360800;27;20221;-72
2020/12/29 02:33:29;;;;;;;8.50;7.70;;;;;;;6.27;60.04;98057.63;6359698;27;20256;-72
2020/12/29 02:36:49;;;;;;;8.23;7.43;;;;;;;6.18;59.95;98057.13;6361899;27;20232;-73
2020/12/29 02:40:10;;;;;;;8.33;7.53;;;;;;;6.18;59.89;98057.13;6335065;27;20221;-72
2020/12/29 02:43:32;;;;;;;9.17;8.27;;;;;;;6.18;60.00;98054.53;6357820;27;20566;-73
2020/12/29 02:46:52;;;;;;;9.57;8.67;;;;;;;6.19;59.91;98048.47;6347878;27;20249;-73
2020/12/29 02:50:13;;;;;;;8.17;7.43;;;;;;;6.13;60.21;98054.69;6352296;27;20553;-73
2020/12/29 02:53:33;;;;;;;7.93;7.23;;;;;;;6.20;60.20;98045.81;6356768;27;20236;-73
2020/12/29 02:56:55;;;;;;;8.10;7.30;;;;;;;6.02;60.22;98056.81;6354995;28;20504;-73
2020/12/29 03:00:16;;;;;;;7.73;7.03;;;;;;;6.08;60.55;98057.44;6358841;28;20987;-73
2020/12/29 03:03:36;;;;;;;7.13;6.43;;;;;;;6.07;60.21;98060.94;6354880;28;20641;-72
2020/12/29 03:06:56;;;;;;;7.73;7.03;;;;;;;6.11;60.37;98062.50;6351474;28;20226;-73
2020/12/29 03:10:17;;;;;;;8.40;7.50;;;;;;;6.16;60.12;98064.06;6357665;27;20225;-73
2020/12/29 03:13:38;;;;;;;7.40;6.70;;;;;;;6.13;60.41;98065.03;6360962;27;20225;-74
2020/12/29 03:16:59;;;;;;;7.80;7.00;;;;;;;6.22;59.95;98064.72;6366502;27;22748;-72
2020/12/29 03:20:20;;;;;;;6.20;5.70;;;;;;;6.20;59.99;98073.41;6347001;27;20501;-72
2020/12/29 03:23:40;;;;;;;7.37;6.67;;;;;;;6.26;59.91;98080.94;6363645;27;20501;-71
2020/12/29 03:27:00;;;;;;;7.20;6.60;;;;;;;6.33;59.74;98081.59;6359492;27;20232;-72
2020/12/29 03:30:22;;;;;;;7.13;6.47;;;;;;;6.37;59.71;98081.41;6363963;27;20233;-72
2020/12/29 03:33:45;;;;;;;6.80;6.20;;;;;;;6.26;59.96;98080.94;6365248;27;20225;-72
2020/12/29 03:37:06;;;;;;;6.50;5.90;;;;;;;6.30;59.64;98085.09;6361969;27;20232;-72
2020/12/29 03:40:27;;;;;;;7.77;6.83;;;;;;;6.14;60.19;98083.97;6354467;27;20221;-72
2020/12/29 03:43:47;;;;;;;7.17;6.57;;;;;;;6.19;59.95;98082.91;6336314;27;20225;-72
2020/12/29 03:47:08;;;;;;;7.33;6.73;;;;;;;6.12;60.02;98091.75;6351975;27;20610;-72
2020/12/29 03:50:29;;;;;;;8.73;7.57;;;;;;;5.97;60.57;98087.13;6323415;28;20234;-72
2020/12/29 03:53:49;;;;;;;9.57;8.77;;;;;;;6.05;60.39;98077.38;6356195;27;20230;-71
2020/12/29 03:57:10;;;;;;;8.07;7.37;;;;;;;5.96;60.49;98088.88;6361441;27;20236;-72
2020/12/29 04:00:31;;;;;;;8.10;7.30;;;;;;;6.06;60.33;98079.91;6343240;27;20225;-72
2020/12/29 04:03:52;;;;;;;8.83;7.93;;;;;;;5.62;61.82;98082.22;6359612;27;20706;-72
2020/12/29 04:07:13;;;;;;;8.00;7.30;;;;;;;5.38;62.04;98090.75;6355502;27;20229;-72
2020/12/29 04:10:34;;;;;;;7.07;6.43;;;;;;;5.50;61.82;98090.34;6360902;27;20252;-72
2020/12/29 04:13:54;;;;;;;8.63;7.73;;;;;;;5.85;60.77;98083.19;6365893;27;20251;-72
2020/12/29 04:17:14;;;;;;;8.37;7.67;;;;;;;5.85;60.86;98086.59;6349234;27;20316;-72
2020/12/29 04:20:35;;;;;;;8.03;7.33;;;;;;;5.71;61.76;98087.06;6364326;27;20241;-72
2020/12/29 04:23:56;;;;;;;8.10;7.47;;;;;;;5.83;61.44;98077.22;6347935;27;20589;-72
2020/12/29 04:27:16;;;;;;;8.77;7.87;;;;;;;5.90;61.22;98089.03;6342018;27;20233;-72
2020/12/29 04:30:37;;;;;;;8.93;8.23;;;;;;;5.50;62.29;98085.19;6359142;27;20500;-71
2020/12/29 04:33:58;;;;;;;8.67;7.80;;;;;;;5.55;62.41;98080.72;6369074;27;20229;-72
2020/12/29 04:37:19;;;;;;;8.70;7.70;;;;;;;5.65;62.30;98083.84;6345496;27;20224;-73
2020/12/29 04:40:40;;;;;;;8.40;7.70;;;;;;;5.81;61.37;98082.44;6357826;27;20601;-73
2020/12/29 04:44:00;;;;;;;8.40;7.70;;;;;;;6.04;60.90;98094.59;6360792;27;20336;-73
2020/12/29 04:47:27;;;;;;;9.77;8.87;;;;;;;6.04;60.96;98101.53;6359402;27;20228;-73
2020/12/29 04:50:51;;;;;;;10.07;9.07;;;;;;;5.78;61.25;98095.47;6364008;27;20517;-74
2020/12/29 04:54:18;;;;;;;10.60;9.60;;;;;;;5.63;61.61;98094.22;6364337;27;20236;-72
2020/12/29 04:57:43;;;;;;;10.77;9.77;;;;;;;5.52;62.13;98093.72;6357673;27;20300;-73
2020/12/29 05:01:06;;;;;;;11.40;10.37;;;;;;;5.57;62.17;98102.16;6339673;27;20234;-73
2020/12/29 05:04:28;;;;;;;10.83;9.70;;;;;;;5.66;61.72;98094.13;6356274;27;20300;-72
2020/12/29 05:07:49;;;;;;;11.30;10.07;;;;;;;5.63;62.26;98094.22;6360880;27;20687;-72
2020/12/29 05:11:10;;;;;;;10.67;9.60;;;;;;;5.50;62.26;98098.09;6355059;27;20232;-72
2020/12/29 05:14:30;;;;;;;10.20;9.07;;;;;;;5.44;62.50;98088.78;6342169;27;20221;-72
2020/12/29 05:17:51;;;;;;;10.53;9.53;;;;;;;5.51;62.29;98092.03;6360696;27;20634;-72
2020/12/29 05:21:12;;;;;;;9.80;8.90;;;;;;;5.53;62.42;98095.41;6359985;27;20610;-72
2020/12/29 05:24:32;;;;;;;10.43;9.43;;;;;;;5.52;62.01;98088.56;6339117;27;20304;-72
2020/12/29 05:27:54;;;;;;;10.67;9.57;;;;;;;5.64;61.78;98101.09;6357932;27;20221;-72
2020/12/29 05:31:16;;;;;;;10.33;8.80;;;;;;;5.72;61.68;98096.50;6353559;27;20237;-72
2020/12/29 05:34:37;;;;;;;9.27;8.47;;;;;;;5.50;62.24;98092.91;6352896;27;20230;-73
2020/12/29 05:38:01;;;;;;;12.50;10.17;;;;;;;5.60;61.81;98091.72;6342627;27;20221;-73
2020/12/29 05:41:22;;;;;;;10.63;9.53;;;;;;;5.75;61.73;98097.28;6349681;27;20229;-72
2020/12/29 05:44:49;;;;;;;10.47;9.40;;;;;;;5.69;61.99;98100.91;6357710;27;20234;-72
2020/12/29 05:48:09;;;;;;;11.33;10.30;;;;;;;5.49;62.43;98102.41;6358787;27;20232;-73
2020/12/29 05:51:29;;;;;;;10.87;9.77;;;;;;;5.49;62.45;98106.72;6345997;27;20240;-72
2020/12/29 05:54:50;;;;;;;9.73;8.93;;;;;;;5.75;61.69;98105.03;6345105;27;20618;-72
2020/12/29 05:58:11;;;;;;;11.73;10.53;;;;;;;5.64;62.18;98103.66;6349796;27;20221;-72
2020/12/29 06:01:40;;;;;;;11.07;10.07;;;;;;;5.62;62.09;98100.28;6337327;27;20700;-73
2020/12/29 06:05:02;;;;;;;11.67;10.53;;;;;;;5.53;62.28;98095.41;6359217;27;20229;-73
2020/12/29 06:08:27;;;;;;;11.37;10.17;;;;;;;5.78;61.71;98097.19;6351354;27;20304;-73
2020/12/29 06:11:54;;;;;;;11.87;10.73;;;;;;;5.80;61.84;98105.75;6351699;27;20230;-73
2020/12/29 06:15:22;;;;;;;12.47;11.30;;;;;;;5.30;62.95;98104.72;6359058;27;20308;-73
2020/12/29 06:18:46;;;;;;;12.10;10.83;;;;;;;5.54;62.76;98112.56;6360782;27;20317;-73
2020/12/29 06:22:09;;;;;;;10.83;9.73;;;;;;;5.79;61.85;98112.63;6357843;27;20316;-73
2020/12/29 06:25:34;;;;;;;12.97;11.67;;;;;;;5.99;61.17;98122.34;6351514;27;20229;-73
2020/12/29 06:28:58;;;;;;;13.57;10.73;;;;;;;5.87;61.45;98120.13;6337480;27;20229;-69
2020/12/29 06:32:20;;;;;;;12.40;10.93;;;;;;;5.75;62.17;98123.97;6332248;27;20229;-72
2020/12/29 06:35:41;;;;;;;13.87;12.07;;;;;;;5.87;61.41;98125.28;6343132;27;20222;-77
2020/12/29 06:39:06;;;;;;;14.20;12.43;;;;;;;5.81;61.62;98134.09;6324993;27;20221;-74
2020/12/29 06:42:27;;;;;;;18.63;15.23;;;;;;;5.59;62.32;98135.69;6331095;27;20652;-72
2020/12/29 06:45:50;;;;;;;14.37;11.57;;;;;;;5.45;62.54;98139.53;6355488;27;20217;-71
2020/12/29 06:49:21;;;;;;;13.40;11.27;;;;;;;5.63;62.23;98142.44;6341156;27;20224;-71
2020/12/29 06:52:43;;;;;;;13.90;12.37;;;;;;;5.83;62.18;98144.38;6350779;27;20237;-74
2020/12/29 06:56:03;;;;;;;14.27;11.83;;;;;;;5.79;62.25;98140.19;6352655;27;20313;-74
2020/12/29 06:59:24;;;;;;;14.10;12.70;;;;;;;5.45;63.50;98143.88;6352265;27;20217;-74
2020/12/29 07:02:47;;;;;;;15.15;13.65;;;;;;;5.32;63.72;98144.22;6339518;28;20744;-75
2020/12/29 07:06:07;;;;;;;16.50;14.30;;;;;;;5.16;64.33;98148.16;6351142;28;20256;-71
2020/12/29 07:09:28;;;;;;;13.77;12.27;;;;;;;5.37;63.68;98156.13;6352994;28;20244;-74
2020/12/29 07:12:51;;;;;;;14.17;12.23;;;;;;;5.08;64.85;98170.78;6353974;28;20226;-71
2020/12/29 07:16:12;;;;;;;13.90;12.50;;;;;;;5.16;64.91;98179.13;6351186;28;20570;-72
2020/12/29 07:19:37;;;;;;;14.87;13.10;;;;;;;5.30;64.48;98176.97;6337225;28;20237;-75
2020/12/29 07:23:03;;;;;;;17.40;13.43;;;;;;;5.15;65.07;98172.25;6341353;28;20225;-74
2020/12/29 07:26:25;;;;;;;15.53;12.87;;;;;;;5.32;64.23;98176.94;6333214;28;20230;-74
2020/12/29 07:29:54;;;;;;;13.87;12.37;;;;;;;5.49;63.78;98177.28;6342337;27;20312;-73
2020/12/29 07:33:19;;;;;;;15.53;13.77;;;;;;;5.53;63.90;98178.03;6320857;28;20232;-70
2020/12/29 07:36:43;;;;;;;15.93;14.20;;;;;;;5.35;64.14;98196.63;6339614;28;20234;-70
2020/12/29 07:40:04;;;;;;;16.50;13.40;;;;;;;5.42;64.64;98204.16;6336936;28;20643;-72
2020/12/29 07:43:25;;;;;;;17.73;13.67;;;;;;;5.31;65.03;98209.66;6355370;28;20309;-73
2020/12/29 07:46:45;;;;;;;15.07;13.50;;;;;;;5.23;65.02;98224.47;6353051;28;20230;-74
2020/12/29 07:50:06;;;;;;;17.67;15.20;;;;;;;5.24;65.35;98225.34;6353916;28;20229;-74
2020/12/29 07:53:26;;;;;;;19.33;15.87;;;;;;;5.29;64.88;98229.50;6352157;28;20756;-69
2020/12/29 07:56:47;;;;;;;16.87;13.43;;;;;;;4.97;66.27;98234.72;6364169;27;20491;-70
2020/12/29 08:00:12;;;;;;;16.57;14.87;;;;;;;5.00;66.05;98240.63;6350861;27;20561;-73
2020/12/29 08:03:35;;;;;;;15.33;13.73;;;;;;;5.09;65.80;98247.25;6360124;27;20237;-76
2020/12/29 08:06:56;;;;;;;17.33;14.77;;;;;;;4.95;66.39;98265.69;6359191;27;20225;-70
2020/12/29 08:10:20;;;;;;;26.30;17.57;;;;;;;5.03;66.42;98266.34;6356118;27;20594;-70
2020/12/29 08:13:40;;;;;;;14.90;13.00;;;;;;;5.12;66.05;98265.25;6360132;27;20229;-70
2020/12/29 08:17:04;;;;;;;16.50;13.57;;;;;;;5.13;66.44;98266.91;6355813;27;20240;-73
2020/12/29 08:20:24;;;;;;;15.33;13.50;;;;;;;5.03;66.72;98271.50;6356084;27;20234;-73
2020/12/29 08:23:46;;;;;;;16.33;14.23;;;;;;;5.13;66.68;98279.81;6357885;27;20521;-72
2020/12/29 08:27:06;;;;;;;17.23;15.23;;;;;;;5.10;67.24;98287.66;6360961;27;20226;-74
2020/12/29 08:30:28;;;;;;;16.47;14.30;;;;;;;5.31;65.76;98287.06;6332077;27;20225;-77
2020/12/29 08:33:52;;;;;;;17.53;14.90;;;;;;;5.32;66.33;98291.31;6351738;27;20226;-69
2020/12/29 08:37:18;;;;;;;16.97;14.33;;;;;;;5.46;65.76;98295.25;6353861;27;20225;-76
2020/12/29 08:40:45;;;;;;;17.87;15.83;;;;;;;5.50;65.36;98302.03;6346344;27;20225;-71
2020/12/29 08:44:07;;;;;;;17.00;14.67;;;;;;;5.62;65.05;98306.84;6344128;27;20654;-71
2020/12/29 08:47:32;;;;;;;15.77;14.17;;;;;;;5.29;66.32;98301.75;6354733;27;20222;-72
2020/12/29 08:50:53;;;;;;;21.00;16.33;;;;;;;5.37;66.07;98300.66;6346242;27;20217;-75
2020/12/29 08:54:15;;;;;;;15.70;14.07;;;;;;;5.62;65.60;98306.84;6360163;27;20253;-70
2020/12/29 08:57:38;;;;;;;16.63;14.87;;;;;;;5.43;66.29;98316.84;6354677;27;20229;-69
2020/12/29 09:00:59;;;;;;;19.80;16.67;;;;;;;5.48;66.48;98308.97;6358892;27;20654;-70
2020/12/29 09:04:25;;;;;;;17.73;15.83;;;;;;;5.06;68.22;98311.81;6355368;27;20271;-73
2020/12/29 09:07:47;;;;;;;18.33;16.57;;;;;;;5.52;66.56;98310.56;6356587;27;20232;-73
2020/12/29 09:11:09;;;;;;;18.40;16.50;;;;;;;5.55;66.33;98315.66;6340190;27;20304;-73
2020/12/29 09:14:29;;;;;;;21.33;18.17;;;;;;;5.58;66.20;98328.44;6355589;27;20230;-73
2020/12/29 09:17:57;;;;;;;17.27;15.40;;;;;;;6.30;65.04;98328.06;6338956;27;20222;-69
2020/12/29 09:21:18;;;;;;;16.57;14.17;;;;;;;6.75;62.90;98330.09;6334506;27;20886;-71
2020/12/29 09:24:52;;;;;;;18.70;16.70;;;;;;;6.60;63.32;98339.19;6333523;27;20313;-72
2020/12/29 09:28:15;;;;;;;16.50;14.73;;;;;;;6.39;63.61;98350.22;6326369;27;20603;-73
2020/12/29 09:31:35;;;;;;;18.13;16.33;;;;;;;6.03;64.79;98360.78;6327534;27;20237;-74
2020/12/29 09:35:24;;;;;;;18.47;16.47;;;;;;;5.93;65.28;98373.06;6354078;27;20244;-70
2020/12/29 09:38:36;;;;;;;17.67;15.77;;;;;;;5.66;66.33;98373.00;6333297;27;20248;-71
2020/12/29 09:41:57;;;;;;;17.53;15.83;;;;;;;5.92;65.27;98380.00;6323102;27;20210;-71
2020/12/29 09:45:18;;;;;;;19.60;17.60;;;;;;;5.84;65.73;98378.53;6336367;27;20230;-71
2020/12/29 09:48:39;;;;;;;20.57;15.23;;;;;;;5.70;66.00;98392.69;6318906;28;20260;-77
2020/12/29 09:52:01;;;;;;;21.03;16.60;;;;;;;5.87;65.94;98399.09;6351217;27;20245;-77
2020/12/29 09:55:22;;;;;;;18.53;16.63;;;;;;;5.45;66.65;98402.00;6357501;27;20472;-76
2020/12/29 09:58:43;;;;;;;18.40;16.17;;;;;;;5.60;66.32;98406.72;6353692;27;20570;-76
2020/12/29 10:02:03;;;;;;;20.20;18.07;;;;;;;5.53;66.79;98405.22;6358051;27;20292;-72
2020/12/29 10:05:23;;;;;;;18.47;15.73;;;;;;;5.64;66.28;98408.34;6355391;27;20233;-71
2020/12/29 10:08:44;;;;;;;16.53;14.93;;;;;;;5.67;66.21;98413.41;6354012;27;20233;-68
2020/12/29 10:12:04;;;;;;;17.40;15.53;;;;;;;5.55;66.48;98418.91;6350883;27;20237;-69
2020/12/29 10:15:26;;;;;;;16.50;14.80;;;;;;;5.46;66.84;98419.16;6346930;27;20225;-69
2020/12/29 10:18:46;;;;;;;16.60;14.87;;;;;;;5.29;67.66;98423.03;6354323;27;20224;-72
2020/12/29 10:22:06;;;;;;;15.60;14.00;;;;;;;5.46;67.10;98411.41;6356415;27;20254;-79
2020/12/29 10:25:27;;;;;;;16.70;15.00;;;;;;;5.09;68.17;98409.78;6353627;27;20225;-75
2020/12/29 10:28:48;;;;;;;17.80;16.00;;;;;;;5.08;68.62;98413.28;6346938;27;20229;-70
2020/12/29 10:32:09;;;;;;;17.53;15.73;;;;;;;5.45;67.60;98402.84;6345588;27;20244;-70
2020/12/29 10:35:29;;;;;;;15.57;14.07;;;;;;;5.96;65.69;98414.38;6339246;27;20228;-71
2020/12/29 10:38:50;;;;;;;18.30;15.50;;;;;;;5.89;66.17;98412.81;6354755;27;20229;-69
2020/12/29 10:42:10;;;;;;;16.47;14.13;;;;;;;5.95;65.53;98414.38;6346647;27;20225;-72
2020/12/29 10:45:30;;;;;;;16.03;14.33;;;;;;;5.88;65.99;98416.31;6343662;27;20252;-74
2020/12/29 10:48:52;;;;;;;16.47;14.73;;;;;;;5.15;68.19;98409.63;6351484;27;20241;-73
2020/12/29 10:52:13;;;;;;;14.67;13.17;;;;;;;5.83;66.65;98400.06;6350859;27;20229;-74
2020/12/29 10:55:34;;;;;;;16.40;14.67;;;;;;;5.73;66.90;98402.91;6344458;27;20233;-75
2020/12/29 10:58:54;;;;;;;15.80;14.10;;;;;;;5.62;67.34;98404.97;6327424;27;20228;-75
2020/12/29 11:02:14;;;;;;;19.13;14.33;;;;;;;5.34;68.75;98410.00;6332119;27;20225;-74
2020/12/29 11:05:35;;;;;;;15.00;13.47;;;;;;;5.40;68.35;98409.00;6353234;28;20216;-74
2020/12/29 11:08:56;;;;;;;14.70;13.20;;;;;;;5.60;67.59;98411.03;6351482;28;20222;-74
2020/12/29 11:12:16;;;;;;;15.63;12.33;;;;;;;5.80;66.83;98419.09;6344224;27;20233;-74
2020/12/29 11:15:37;;;;;;;15.33;13.10;;;;;;;5.49;67.57;98413.94;6331178;27;20217;-74
2020/12/29 11:18:57;;;;;;;12.70;11.40;;;;;;;5.73;66.52;98428.72;6337084;28;20305;-75
2020/12/29 11:22:19;;;;;;;12.10;10.87;;;;;;;5.62;66.87;98419.59;6319825;28;20218;-74
2020/12/29 11:25:39;;;;;;;15.50;13.87;;;;;;;5.39;67.55;98426.25;6327899;28;20230;-75
2020/12/29 11:28:59;;;;;;;13.00;11.80;;;;;;;5.39;68.25;98422.78;6307076;28;20242;-76
2020/12/29 11:32:20;;;;;;;12.73;11.47;;;;;;;5.46;67.65;98419.16;6316656;27;20316;-76
2020/12/29 11:35:42;;;;;;;12.87;11.67;;;;;;;5.23;68.33;98423.19;6333219;27;20294;-76
2020/12/29 11:39:04;;;;;;;13.37;12.10;;;;;;;5.56;67.25;98415.44;6333343;27;20234;-75
2020/12/29 11:42:26;;;;;;;13.73;12.33;;;;;;;5.62;66.93;98419.59;6323027;27;20312;-76
2020/12/29 11:45:47;;;;;;;14.30;12.83;;;;;;;5.90;66.33;98419.69;6322424;27;20234;-75
2020/12/29 11:49:07;;;;;;;14.03;12.63;;;;;;;6.06;65.42;98420.97;6334183;28;20226;-75
2020/12/29 11:52:28;;;;;;;14.73;12.23;;;;;;;5.39;67.30;98433.09;6339028;27;20226;-76
2020/12/29 11:55:49;;;;;;;12.73;11.50;;;;;;;5.73;66.44;98427.91;6329740;27;20221;-77
2020/12/29 11:59:09;;;;;;;12.90;11.70;;;;;;;5.55;67.33;98425.84;6329960;27;20606;-75
2020/12/29 12:02:30;;;;;;;12.63;11.00;;;;;;;5.62;66.31;98441.13;6349288;27;20301;-76
2020/12/29 12:05:51;;;;;;;13.70;11.17;;;;;;;5.60;66.21;98427.38;6330501;27;20222;-76
2020/12/29 12:09:12;;;;;;;10.77;9.63;;;;;;;5.59;66.35;98436.03;6333490;27;20638;-77
2020/12/29 12:12:33;;;;;;;12.37;11.17;;;;;;;5.63;66.52;98437.63;6351456;27;20233;-74
2020/12/29 12:15:54;;;;;;;10.97;9.83;;;;;;;5.99;65.90;98434.97;6347819;27;20745;-74
2020/12/29 12:19:14;;;;;;;10.90;9.80;;;;;;;5.79;65.86;98452.72;6353183;27;20221;-72
2020/12/29 12:22:35;;;;;;;11.23;9.23;;;;;;;5.85;65.73;98449.97;6359424;27;20229;-78
2020/12/29 12:25:55;;;;;;;11.93;10.73;;;;;;;5.78;65.67;98454.47;6335909;27;20315;-74
2020/12/29 12:29:17;;;;;;;11.03;9.90;;;;;;;5.97;65.52;98462.59;6349427;27;20571;-74
2020/12/29 12:32:38;;;;;;;11.97;10.87;;;;;;;5.70;65.90;98466.75;6348615;27;20240;-74
2020/12/29 12:35:58;;;;;;;11.80;9.63;;;;;;;5.32;66.75;98472.00;6357814;27;20312;-73
2020/12/29 12:39:19;;;;;;;10.27;9.27;;;;;;;5.57;66.81;98479.13;6355355;27;22815;-75
2020/12/29 12:42:40;;;;;;;12.33;9.00;;;;;;;5.99;65.44;98478.88;6338753;27;20540;-73
2020/12/29 12:46:01;;;;;;;16.50;11.30;;;;;;;5.87;65.24;98494.66;6350158;27;20225;-71
2020/12/29 12:49:21;;;;;;;11.90;10.17;;;;;;;5.66;66.85;98494.38;6353433;27;20237;-72
2020/12/29 12:52:42;;;;;;;11.10;9.90;;;;;;;6.00;65.04;98511.56;6349035;27;20328;-74
2020/12/29 12:56:04;;;;;;;11.07;10.07;;;;;;;6.00;65.69;98509.00;6335248;27;20658;-77
2020/12/29 12:59:25;;;;;;;12.10;9.93;;;;;;;5.76;66.35;98517.34;6308170;28;20321;-74
2020/12/29 13:02:46;;;;;;;11.40;10.30;;;;;;;5.55;66.94;98511.88;6329591;27;20222;-74
2020/12/29 13:06:07;;;;;;;12.93;11.67;;;;;;;5.73;66.60;98523.44;6334265;27;20917;-74
2020/12/29 13:09:27;;;;;;;11.93;10.83;;;;;;;5.66;67.01;98520.19;6334128;27;20225;-74
2020/12/29 13:12:49;;;;;;;11.97;10.77;;;;;;;5.72;66.41;98529.53;6334780;27;20230;-75
2020/12/29 13:16:09;;;;;;;13.30;12.13;;;;;;;6.04;65.47;98533.84;6331958;27;20225;-72
2020/12/29 13:19:31;;;;;;;12.57;11.37;;;;;;;5.94;66.08;98550.47;6334617;27;20226;-72
2020/12/29 13:22:51;;;;;;;14.00;12.70;;;;;;;5.79;66.54;98556.88;6321286;27;20328;-78
2020/12/29 13:26:12;;;;;;;13.40;12.10;;;;;;;6.10;65.26;98567.28;6330476;28;20222;-75
2020/12/29 13:29:33;;;;;;;13.23;12.13;;;;;;;5.48;67.45;98565.38;6319928;27;20226;-75
2020/12/29 13:32:53;;;;;;;13.33;12.13;;;;;;;5.31;68.66;98578.72;6330582;27;20233;-74
2020/12/29 13:36:15;;;;;;;15.40;13.83;;;;;;;5.78;66.49;98585.31;6330972;28;20222;-73
2020/12/29 13:39:36;;;;;;;15.50;13.90;;;;;;;6.01;66.13;98582.19;6330876;27;20222;-74
2020/12/29 13:42:57;;;;;;;15.33;13.83;;;;;;;5.65;67.42;98601.13;6353663;27;20229;-76
2020/12/29 13:46:17;;;;;;;12.67;11.47;;;;;;;5.89;66.12;98603.97;6355987;27;20229;-67
2020/12/29 13:49:37;;;;;;;14.33;13.00;;;;;;;5.68;67.13;98611.38;6357194;27;20221;-72
2020/12/29 13:52:59;;;;;;;13.67;12.37;;;;;;;5.87;66.79;98616.97;6349688;27;20312;-71
2020/12/29 13:56:19;;;;;;;14.60;13.30;;;;;;;5.76;66.76;98621.53;6344152;27;21944;-70
2020/12/29 13:59:40;;;;;;;16.13;14.63;;;;;;;6.15;65.71;98624.03;6337598;27;20233;-72
2020/12/29 14:03:00;;;;;;;12.70;11.50;;;;;;;6.27;65.48;98620.28;6336813;27;20221;-73
2020/12/29 14:06:21;;;;;;;13.83;12.53;;;;;;;6.29;65.12;98624.50;6345808;27;20544;-72
2020/12/29 14:09:42;;;;;;;14.73;13.27;;;;;;;5.91;66.84;98628.03;6336073;27;20811;-73
2020/12/29 14:13:02;;;;;;;12.40;11.10;;;;;;;6.23;65.45;98626.41;6342047;27;20321;-73
2020/12/29 14:16:23;;;;;;;12.67;11.43;;;;;;;5.80;66.66;98645.56;6326026;27;20630;-72
2020/12/29 14:19:43;;;;;;;13.23;11.93;;;;;;;5.98;66.52;98645.13;6319609;27;20257;-72
2020/12/29 14:23:04;;;;;;;12.20;11.10;;;;;;;5.69;66.40;98649.22;6314448;27;20225;-72
2020/12/29 14:26:25;;;;;;;12.17;10.97;;;;;;;5.83;66.29;98655.81;6344859;27;20615;-74
2020/12/29 14:29:46;;;;;;;11.23;10.13;;;;;;;5.90;66.09;98652.19;6344694;27;20214;-73
2020/12/29 14:33:07;;;;;;;12.80;11.60;;;;;;;6.07;65.74;98655.22;6355141;27;20233;-73
2020/12/29 14:36:27;;;;;;;12.13;10.97;;;;;;;6.05;65.69;98662.19;6347150;27;20232;-74
2020/12/29 14:39:48;;;;;;;11.93;10.77;;;;;;;6.28;65.25;98650.38;6340785;27;20236;-74
2020/12/29 14:43:09;;;;;;;10.93;9.93;;;;;;;5.99;65.53;98670.09;6346994;27;22179;-74
2020/12/29 14:46:30;;;;;;;12.17;11.00;;;;;;;5.89;66.63;98668.56;6357622;27;21097;-72
2020/12/29 14:49:50;;;;;;;12.40;11.27;;;;;;;6.18;65.75;98667.03;6355883;27;20514;-73
2020/12/29 14:53:11;;;;;;;12.07;10.87;;;;;;;6.41;64.67;98661.25;6346765;27;20233;-73
2020/12/29 14:56:33;;;;;;;12.03;10.20;;;;;;;6.47;64.55;98674.88;6354107;27;20225;-73
2020/12/29 14:59:54;;;;;;;12.40;11.23;;;;;;;6.48;64.61;98675.72;6360843;27;20229;-72
2020/12/29 15:03:15;;;;;;;13.68;12.48;;;;;;;6.52;64.63;98686.84;6350404;28;20742;-73
2020/12/29 15:06:36;;;;;;;12.90;11.67;;;;;;;6.20;65.39;98691.09;6355835;28;20248;-73
2020/12/29 15:09:57;;;;;;;12.30;11.07;;;;;;;6.27;65.62;98697.81;6351614;28;20213;-74
2020/12/29 15:13:19;;;;;;;13.33;11.93;;;;;;;6.23;65.51;98688.44;6357868;28;20229;-74
2020/12/29 15:16:40;;;;;;;12.90;11.63;;;;;;;6.54;64.44;98698.00;6351628;28;20281;-73
2020/12/29 15:20:01;;;;;;;13.13;11.83;;;;;;;6.42;65.12;98717.28;6346349;28;20662;-73
2020/12/29 15:23:21;;;;;;;12.03;10.93;;;;;;;6.23;65.65;98709.97;6350309;28;20226;-73
2020/12/29 15:26:42;;;;;;;14.13;12.73;;;;;;;6.28;65.32;98715.88;6353190;28;20217;-73
2020/12/29 15:30:03;;;;;;;13.95;12.75;;;;;;;6.34;65.39;98719.19;6359169;28;20746;-73
2020/12/29 15:33:24;;;;;;;12.30;11.13;;;;;;;6.34;65.06;98725.22;6353094;28;20229;-73
2020/12/29 15:36:45;;;;;;;13.17;11.87;;;;;;;6.32;64.97;98724.41;6340038;28;20229;-73
2020/12/29 15:40:05;;;;;;;15.03;13.43;;;;;;;6.49;64.78;98730.00;6346708;28;20225;-73
2020/12/29 15:43:25;;;;;;;13.87;12.30;;;;;;;6.42;64.52;98735.38;6330261;28;20229;-74
2020/12/29 15:46:45;;;;;;;14.53;13.03;;;;;;;5.88;67.00;98742.63;6337184;28;20234;-73